To NAV CANADA Home Page Login to a new session Search on AWWS site Feedback and Comments Disclaimer Vers la page française équivalente Tips FAQ What's new on the site To the Forecasts and Observations / NOTAM section To "File a Flight Plan" website Publications and other links Update of the User's profile FIC Telephone Numbers My Weather Data Folder Route Weather Data Regional Weather Data Local Weather Data To the Forecasts and Observations / NOTAM section
Request Generated 05/05/2016 at 14:18:07 UTC . Weather information available at that time is displayed.

METAR/TAF

GREENWOOD/NS    

METAR CYZX 051400Z 07016G22KT 12SM -RA SCT009 OVC012 06/04 A2985 RMK SF3SC5 WNDY HILL 08017G26KT SLP109=
SPECI CYZX 051315Z 07016G22KT 8SM -RA SCT009 OVC012 06/05 A2984 RMK SF3SC5 WNDY HILL 09020G30KT SLP105=
METAR CYZX 051300Z 06015KT 5SM -RA BR SCT008 OVC012 06/05 A2983 RMK SF3SC5 WNDY HILL 09018G26KT SLP101=
METAR CYZX 051200Z 08014G20KT 5SM -RA BR SCT008 OVC012 05/04 A2985 RMK SF3SC5 WNDY HILL 09017G30KT SLP108=

TAF CYZX 051130Z 0512/0612 06012KT 3SM -RA BR SCT004 OVC008 TEMPO
0512/0515 6SM -RA BR SCT008 OVC015 PROB30 0512/0515 2SM -RA BR
OVC004
FM051500 04010KT 4SM -DZ BR OVC006 TEMPO 0515/0518 6SM -DZ BR
SCT006 OVC010
FM051800 04010KT P6SM OVC012
FM052300 04008KT 4SM -RA BR OVC006 TEMPO 0523/0609 2SM RA BR
RMK NXT FCST BY 051800Z=
Your time UTC time
Weather data provided by Environment Canada and NAV CANADA